Time,TemperatureF,DewpointF,PressureIn,WindDirection,WindDirectionDegrees,WindSpeedMPH,WindSpeedGustMPH,Humidity,HourlyPrecipIn,Conditions,Clouds,dailyrainin,SoftwareType,DateUTC
2013-05-02 00:00:00,54.2,52.8,30.24,NW,315,2.0,12.0,95,0.00,,OVC,0.00,VWS V14.01,2013-05-02 04:00:00,
2013-05-02 01:00:00,53.9,52.2,30.24,WNW,292,2.0,8.0,94,0.00,,OVC,0.00,VWS V14.01,2013-05-02 05:00:00,
2013-05-02 02:00:00,53.3,51.3,30.24,WNW,292,2.0,14.0,93,0.00,,OVC,0.00,VWS V14.01,2013-05-02 06:00:00,
2013-05-02 03:00:00,52.8,51.4,30.23,NW,315,1.0,10.0,95,0.00,,OVC,0.00,VWS V14.01,2013-05-02 07:00:00,
2013-05-02 04:00:00,52.8,51.7,30.22,West,270,1.0,7.0,96,0.00,,OVC,0.00,VWS V14.01,2013-05-02 08:00:00,
2013-05-02 05:00:00,52.5,51.4,30.22,WNW,292,1.0,12.0,96,0.01,,OVC,0.01,VWS V14.01,2013-05-02 09:00:00,
2013-05-02 06:00:00,52.4,51.6,30.21,North,0,2.0,13.0,97,0.01,,OVC,0.01,VWS V14.01,2013-05-02 10:00:00,
2013-05-02 07:00:00,52.0,51.2,30.23,West,270,1.0,8.0,97,0.00,,OVC,0.01,VWS V14.01,2013-05-02 11:00:00,
2013-05-02 08:00:00,52.2,51.4,30.24,West,270,2.0,10.0,97,0.00,,OVC,0.01,VWS V14.01,2013-05-02 12:00:00,
2013-05-02 09:00:00,52.2,51.4,30.25,NNW,338,2.0,11.0,97,0.00,,OVC,0.01,VWS V14.01,2013-05-02 13:00:00,
2013-05-02 10:00:00,51.8,51.0,30.26,West,270,1.0,8.0,97,0.00,,OVC,0.01,VWS V14.01,2013-05-02 14:00:00,
2013-05-02 11:00:00,53.0,52.2,30.27,West,270,1.0,8.0,97,0.00,,OVC,0.01,VWS V14.01,2013-05-02 15:00:00,
2013-05-02 12:00:00,53.8,53.0,30.28,NW,315,1.0,8.0,97,0.00,,OVC,0.01,VWS V14.01,2013-05-02 16:00:00,
2013-05-02 13:00:00,53.9,52.8,30.27,North,0,1.0,7.0,96,0.00,,OVC,0.01,VWS V14.01,2013-05-02 17:00:00,
2013-05-02 14:00:00,56.0,54.3,30.27,West,270,1.0,8.0,94,0.00,,OVC,0.01,VWS V14.01,2013-05-02 18:00:00,
2013-05-02 15:00:00,55.9,53.9,30.26,West,270,1.0,6.0,93,0.00,,OVC,0.01,VWS V14.01,2013-05-02 19:00:00,
2013-05-02 16:00:00,55.1,53.7,30.25,West,270,1.0,8.0,95,0.00,,OVC,0.01,VWS V14.01,2013-05-02 20:00:00,
2013-05-02 17:00:00,55.5,53.8,30.23,SSW,202,1.0,8.0,94,0.00,,OVC,0.01,VWS V14.01,2013-05-02 21:00:00,
2013-05-02 18:00:00,54.5,53.4,30.23,West,270,1.0,7.0,96,0.00,,OVC,0.01,VWS V14.01,2013-05-02 22:00:00,
2013-05-02 19:00:00,54.3,53.5,30.22,West,270,1.0,10.0,97,0.00,,OVC,0.01,VWS V14.01,2013-05-02 23:00:00,
2013-05-02 20:00:00,53.9,53.1,30.23,SW,225,1.0,7.0,97,0.00,,OVC,0.01,VWS V14.01,2013-05-03 00:00:00,
2013-05-02 21:00:00,53.5,52.7,30.22,West,270,1.0,9.0,97,0.00,,OVC,0.01,VWS V14.01,2013-05-03 01:00:00,
2013-05-02 22:00:00,53.5,52.7,30.24,West,270,1.0,9.0,97,0.00,,OVC,0.01,VWS V14.01,2013-05-03 02:00:00,
2013-05-02 23:00:00,53.3,52.5,30.23,SSW,202,1.0,8.0,97,0.00,,OVC,0.01,VWS V14.01,2013-05-03 03:00:00,